Time;durP1;ratioP1;P1;durP2;ratioP2;P2;SDS_P1;SDS_P2;PMS_P1;PMS_P2;Temp;Humidity;BMP_temperature;BMP_pressure;BME280_temperature;BME280_humidity;BME280_pressure;Samples;Min_cycle;Max_cycle;Signal;HPM_P1;HPM_P2
2021/12/31 00:01:42;;;;;;;1.20;1.00;;;23.40;74.40;;;;;;5076558;28;20453;-61
2021/12/31 00:04:09;;;;;;;1.00;0.80;;;23.40;74.30;;;;;;5076717;28;20438;-61
2021/12/31 00:06:36;;;;;;;1.00;0.80;;;23.40;74.40;;;;;;5076423;28;20489;-61
2021/12/31 00:09:03;;;;;;;1.00;0.80;;;23.40;74.40;;;;;;5076334;28;20475;-61
2021/12/31 00:11:33;;;;;;;1.00;0.90;;;23.40;74.40;;;;;;5076241;28;20940;-61
2021/12/31 00:14:00;;;;;;;1.17;0.80;;;23.40;74.40;;;;;;5076295;28;20446;-61
2021/12/31 00:16:26;;;;;;;0.97;0.73;;;23.40;74.30;;;;;;5076025;28;20451;-62
2021/12/31 00:18:54;;;;;;;1.00;0.80;;;23.40;74.40;;;;;;5076144;28;20518;-61
2021/12/31 00:21:21;;;;;;;1.00;0.80;;;23.40;74.30;;;;;;5076178;28;20499;-61
2021/12/31 00:23:47;;;;;;;1.10;0.80;;;23.40;74.40;;;;;;5076063;28;20454;-61
2021/12/31 00:26:14;;;;;;;1.20;0.97;;;23.40;75.30;;;;;;5076061;28;20434;-61
2021/12/31 00:28:42;;;;;;;1.00;0.70;;;23.40;74.40;;;;;;5075950;28;20438;-61
2021/12/31 00:31:09;;;;;;;1.03;0.80;;;23.40;74.30;;;;;;5076040;28;20448;-61
2021/12/31 00:33:35;;;;;;;1.33;1.23;;;23.40;74.40;;;;;;5076100;28;20438;-61
2021/12/31 00:36:02;;;;;;;1.53;1.00;;;23.40;74.30;;;;;;5075929;28;20442;-61
2021/12/31 00:38:29;;;;;;;0.90;0.70;;;23.40;74.30;;;;;;5075846;28;20459;-61
2021/12/31 00:40:55;;;;;;;1.00;0.80;;;23.40;74.30;;;;;;5075800;28;20489;-61
2021/12/31 00:43:22;;;;;;;1.10;0.83;;;23.40;74.30;;;;;;5076031;28;20450;-61
2021/12/31 00:45:50;;;;;;;1.10;0.83;;;23.40;74.30;;;;;;5076032;28;20446;-61
2021/12/31 00:48:17;;;;;;;0.93;0.70;;;23.40;74.30;;;;;;5075868;28;20822;-61
2021/12/31 00:50:44;;;;;;;0.93;0.77;;;23.40;74.30;;;;;;5075633;28;20460;-61
2021/12/31 00:53:10;;;;;;;1.20;0.97;;;23.40;74.40;;;;;;5075982;28;20430;-61
2021/12/31 00:55:38;;;;;;;1.00;0.80;;;23.40;74.40;;;;;;5075795;28;20432;-62
2021/12/31 00:58:06;;;;;;;1.10;0.80;;;23.40;74.40;;;;;;5075567;28;20470;-61
2021/12/31 01:00:33;;;;;;;1.00;0.70;;;23.40;74.40;;;;;;5075501;28;20489;-61
2021/12/31 01:03:02;;;;;;;1.20;0.90;;;23.40;74.40;;;;;;5075495;28;20461;-61
2021/12/31 01:05:29;;;;;;;0.90;0.70;;;23.40;74.40;;;;;;5075126;28;20441;-61
2021/12/31 01:07:55;;;;;;;1.00;0.80;;;23.30;74.20;;;;;;5075187;28;20467;-61
2021/12/31 01:10:26;;;;;;;0.97;0.80;;;23.40;74.30;;;;;;5075246;28;20446;-62
2021/12/31 01:12:53;;;;;;;1.03;0.80;;;23.40;74.30;;;;;;5075389;28;20446;-61
2021/12/31 01:15:33;;;;;;;1.10;1.00;;;23.40;74.30;;;;;;5075500;28;20442;-62
2021/12/31 01:20:47;;;;;;;1.10;0.70;;;23.40;74.30;;;;;;5071669;28;20488;-61
2021/12/31 01:23:16;;;;;;;0.93;0.70;;;23.40;74.30;;;;;;5075017;28;20451;-62
2021/12/31 01:25:43;;;;;;;1.03;0.80;;;23.40;74.40;;;;;;5074967;28;20983;-62
2021/12/31 01:28:10;;;;;;;1.00;0.80;;;23.40;74.40;;;;;;5074981;28;20449;-61
2021/12/31 01:30:36;;;;;;;0.90;0.70;;;23.40;74.40;;;;;;5074759;28;20446;-61
2021/12/31 01:33:03;;;;;;;1.03;0.70;;;23.40;74.40;;;;;;5074902;28;20464;-61
2021/12/31 01:35:30;;;;;;;1.00;0.80;;;23.40;74.30;;;;;;5074890;28;20832;-61
2021/12/31 01:37:58;;;;;;;1.10;0.80;;;23.40;74.30;;;;;;5074604;28;20466;-61
2021/12/31 01:40:25;;;;;;;1.10;0.90;;;23.40;74.30;;;;;;5074709;28;20499;-61
2021/12/31 01:42:52;;;;;;;1.10;0.80;;;23.40;74.30;;;;;;5074926;28;20445;-61
2021/12/31 01:45:21;;;;;;;1.00;0.80;;;23.40;74.30;;;;;;5074492;28;20446;-61
2021/12/31 01:47:59;;;;;;;1.10;0.90;;;23.40;74.20;;;;;;5074476;28;20447;-61
2021/12/31 01:50:27;;;;;;;1.00;0.70;;;23.40;74.20;;;;;;5074626;28;20935;-61
2021/12/31 01:52:54;;;;;;;1.00;0.80;;;23.40;74.30;;;;;;5074874;28;20490;-61
2021/12/31 01:55:25;;;;;;;1.00;0.80;;;23.40;74.30;;;;;;5074479;28;20430;-61
2021/12/31 01:57:52;;;;;;;1.07;0.70;;;23.40;74.20;;;;;;5074376;28;20437;-61
2021/12/31 02:00:19;;;;;;;0.90;0.67;;;23.40;74.30;;;;;;5074243;28;20874;-61
2021/12/31 02:02:47;;;;;;;1.10;0.90;;;23.40;74.30;;;;;;5074283;28;20453;-61
2021/12/31 02:05:15;;;;;;;1.00;0.70;;;23.40;75.10;;;;;;5074260;28;20439;-61
2021/12/31 02:07:42;;;;;;;0.97;0.70;;;23.40;74.30;;;;;;5074081;28;20457;-61
2021/12/31 02:10:10;;;;;;;0.90;0.67;;;23.40;74.20;;;;;;5074196;28;20449;-61
2021/12/31 02:12:42;;;;;;;1.00;0.80;;;23.30;74.20;;;;;;5074013;28;20442;-61
2021/12/31 02:15:10;;;;;;;1.00;0.80;;;23.40;74.30;;;;;;5074050;28;20432;-61
2021/12/31 02:17:36;;;;;;;1.00;0.77;;;23.40;74.30;;;;;;5073111;28;20506;-61
2021/12/31 02:20:06;;;;;;;1.00;0.70;;;23.30;74.20;;;;;;5073891;28;20484;-61
2021/12/31 02:22:35;;;;;;;1.00;0.70;;;23.40;74.20;;;;;;5073802;28;20450;-61
2021/12/31 02:25:02;;;;;;;1.00;0.77;;;23.30;74.20;;;;;;5073826;28;20449;-61
2021/12/31 02:27:29;;;;;;;1.03;0.70;;;23.40;74.20;;;;;;5073685;28;20913;-61
2021/12/31 02:29:56;;;;;;;0.90;0.77;;;23.40;74.20;;;;;;5073792;28;20438;-62
2021/12/31 02:32:22;;;;;;;0.90;0.60;;;23.40;74.30;;;;;;5073764;28;20449;-61
2021/12/31 02:34:50;;;;;;;1.00;0.80;;;23.40;74.30;;;;;;5073880;28;20450;-61
2021/12/31 02:37:18;;;;;;;1.00;0.80;;;23.40;74.20;;;;;;5073407;28;20526;-61
2021/12/31 02:39:45;;;;;;;1.00;0.77;;;23.40;74.20;;;;;;5073549;28;20505;-61
2021/12/31 02:42:12;;;;;;;1.00;0.70;;;23.40;74.20;;;;;;5073655;28;20442;-61
2021/12/31 02:44:40;;;;;;;1.00;0.70;;;23.40;74.20;;;;;;5073545;28;20443;-61
2021/12/31 02:47:07;;;;;;;0.90;0.60;;;23.30;74.10;;;;;;5073389;28;20507;-61
2021/12/31 02:49:39;;;;;;;1.00;0.70;;;23.40;74.20;;;;;;5073834;28;20447;-61
2021/12/31 02:52:11;;;;;;;0.90;0.70;;;23.40;74.20;;;;;;5073525;28;20437;-61
2021/12/31 02:54:43;;;;;;;0.97;0.80;;;23.30;74.10;;;;;;5073520;28;20445;-61
2021/12/31 02:57:12;;;;;;;1.10;0.80;;;23.40;74.20;;;;;;5073570;28;20485;-62
2021/12/31 02:59:39;;;;;;;1.00;0.80;;;23.30;74.10;;;;;;5073373;28;20540;-61
2021/12/31 03:02:07;;;;;;;1.00;0.80;;;23.30;74.10;;;;;;5073264;28;20433;-61
2021/12/31 03:04:35;;;;;;;1.00;0.80;;;23.40;74.20;;;;;;5073265;28;20477;-61
2021/12/31 03:07:04;;;;;;;1.10;0.90;;;23.40;74.20;;;;;;5073157;28;20482;-62
2021/12/31 03:09:32;;;;;;;1.10;0.80;;;23.40;74.20;;;;;;5073412;28;20441;-61
2021/12/31 03:12:01;;;;;;;0.97;0.73;;;23.40;74.20;;;;;;5073336;28;20497;-61
2021/12/31 03:14:30;;;;;;;0.90;0.70;;;23.40;74.20;;;;;;5073323;28;20440;-61
2021/12/31 03:16:58;;;;;;;1.10;0.70;;;23.30;74.10;;;;;;5073020;28;20862;-61
2021/12/31 03:19:24;;;;;;;1.20;0.80;;;23.40;74.20;;;;;;5073012;28;20442;-61
2021/12/31 03:21:51;;;;;;;1.10;0.90;;;23.40;74.20;;;;;;5073021;28;20482;-61
2021/12/31 03:24:18;;;;;;;1.20;0.73;;;23.40;74.20;;;;;;5073346;28;20433;-62
2021/12/31 03:26:44;;;;;;;1.30;0.80;;;23.30;74.10;;;;;;5073095;28;20441;-61
2021/12/31 03:29:12;;;;;;;1.00;0.70;;;23.30;74.10;;;;;;5073542;28;20466;-61
2021/12/31 03:31:39;;;;;;;0.90;0.63;;;23.40;74.10;;;;;;5077105;28;20475;-61
2021/12/31 03:34:06;;;;;;;1.00;0.80;;;23.30;74.10;;;;;;5077072;28;20449;-61
2021/12/31 03:36:32;;;;;;;0.90;0.70;;;23.30;74.10;;;;;;5077216;28;20487;-61
2021/12/31 03:38:59;;;;;;;1.00;0.73;;;23.30;74.10;;;;;;5076978;28;20446;-61
2021/12/31 03:41:26;;;;;;;1.00;0.73;;;23.30;74.10;;;;;;5077116;28;20481;-62
2021/12/31 03:43:53;;;;;;;1.00;0.70;;;23.30;74.10;;;;;;5076949;28;20788;-61
2021/12/31 03:46:22;;;;;;;0.90;0.70;;;23.30;74.10;;;;;;5077235;28;20441;-61
2021/12/31 03:48:49;;;;;;;0.90;0.70;;;23.30;74.10;;;;;;5076994;28;20499;-61
2021/12/31 03:51:15;;;;;;;0.90;0.60;;;23.30;74.10;;;;;;5076799;28;20442;-61
2021/12/31 03:53:42;;;;;;;0.90;0.70;;;23.30;74.10;;;;;;5076783;28;20440;-61
2021/12/31 03:56:09;;;;;;;1.00;0.80;;;23.30;74.10;;;;;;5076680;28;20447;-61
2021/12/31 03:58:36;;;;;;;1.00;0.70;;;23.30;74.00;;;;;;5076749;28;20440;-61
2021/12/31 04:01:03;;;;;;;1.03;0.83;;;23.30;74.10;;;;;;5076644;28;20484;-61
2021/12/31 04:03:31;;;;;;;0.90;0.70;;;23.30;74.10;;;;;;5076590;28;20434;-61
2021/12/31 04:05:58;;;;;;;1.00;0.70;;;23.30;74.10;;;;;;5076783;28;20929;-61
2021/12/31 04:08:25;;;;;;;0.90;0.70;;;23.30;74.10;;;;;;5076408;28;20807;-61
2021/12/31 04:10:51;;;;;;;1.13;1.00;;;23.30;74.10;;;;;;5076396;28;20914;-61
2021/12/31 04:13:18;;;;;;;1.20;0.80;;;23.30;74.10;;;;;;5076300;28;20445;-62
2021/12/31 04:15:45;;;;;;;0.90;0.70;;;23.30;74.00;;;;;;5076592;28;20438;-61
2021/12/31 04:18:12;;;;;;;1.00;0.80;;;23.30;74.10;;;;;;5076443;28;20470;-61
2021/12/31 04:20:42;;;;;;;0.97;0.77;;;23.30;74.10;;;;;;5076119;28;20485;-61
2021/12/31 04:23:14;;;;;;;0.90;0.63;;;23.30;74.10;;;;;;5076159;28;20795;-61
2021/12/31 04:25:41;;;;;;;1.10;0.80;;;23.30;74.90;;;;;;5076233;28;20446;-61
2021/12/31 04:28:08;;;;;;;0.90;0.67;;;23.30;74.10;;;;;;5076183;28;20805;-61
2021/12/31 04:30:35;;;;;;;1.10;0.80;;;23.30;74.10;;;;;;5075968;28;20446;-61
2021/12/31 04:33:02;;;;;;;1.10;0.80;;;23.30;74.10;;;;;;5076446;28;20434;-61
2021/12/31 04:35:28;;;;;;;1.53;0.83;;;23.30;74.10;;;;;;5075769;28;20526;-61
2021/12/31 04:37:57;;;;;;;1.17;0.90;;;23.30;74.10;;;;;;5075831;28;20453;-61
2021/12/31 04:40:23;;;;;;;0.93;0.60;;;23.30;74.10;;;;;;5075324;28;20477;-61
2021/12/31 04:42:50;;;;;;;0.90;0.70;;;23.30;74.10;;;;;;5075814;28;20442;-61
2021/12/31 04:45:17;;;;;;;1.00;0.80;;;23.30;74.10;;;;;;5075811;28;20496;-61
2021/12/31 04:47:44;;;;;;;0.90;0.70;;;23.30;74.10;;;;;;5075876;28;20441;-61
2021/12/31 04:50:12;;;;;;;1.13;0.80;;;23.30;74.10;;;;;;5075718;28;20430;-62
2021/12/31 04:52:39;;;;;;;1.00;0.80;;;23.30;74.10;;;;;;5075830;28;20446;-62
2021/12/31 04:55:08;;;;;;;1.07;0.80;;;23.30;74.10;;;;;;5075720;28;20511;-61
2021/12/31 04:57:35;;;;;;;0.97;0.70;;;23.30;74.10;;;;;;5075654;28;20460;-61
2021/12/31 05:00:01;;;;;;;0.90;0.77;;;23.30;74.10;;;;;;5075384;28;20937;-61
2021/12/31 05:02:28;;;;;;;0.90;0.70;;;23.30;74.10;;;;;;5075513;28;20449;-61
2021/12/31 05:04:55;;;;;;;0.90;0.67;;;23.30;74.10;;;;;;5075465;28;20777;-61
2021/12/31 05:07:21;;;;;;;1.00;0.90;;;23.30;74.10;;;;;;5075363;28;20460;-61
2021/12/31 05:09:48;;;;;;;0.90;0.63;;;23.30;74.10;;;;;;5075430;28;20434;-61
2021/12/31 05:12:23;;;;;;;1.20;0.77;;;23.20;74.00;;;;;;5075377;28;20932;-61
2021/12/31 05:14:49;;;;;;;1.00;0.70;;;23.30;74.00;;;;;;5075312;28;20442;-61
2021/12/31 05:17:16;;;;;;;0.90;0.70;;;23.30;74.00;;;;;;5075067;28;20481;-61
2021/12/31 05:19:44;;;;;;;1.07;0.80;;;23.30;74.90;;;;;;5075139;28;20492;-61
2021/12/31 05:22:11;;;;;;;0.90;0.70;;;23.30;74.00;;;;;;5075258;28;20900;-62
2021/12/31 05:24:38;;;;;;;1.00;0.80;;;23.20;73.90;;;;;;5075016;28;20480;-64
2021/12/31 05:27:05;;;;;;;1.00;0.80;;;23.30;74.10;;;;;;5075060;28;20846;-63
2021/12/31 05:29:34;;;;;;;0.97;0.70;;;23.30;74.10;;;;;;5075098;28;20448;-61
2021/12/31 05:32:00;;;;;;;0.93;0.70;;;23.30;74.10;;;;;;5075003;28;20769;-61
2021/12/31 05:34:28;;;;;;;1.00;0.73;;;23.30;74.00;;;;;;5074805;28;20838;-61
2021/12/31 05:36:54;;;;;;;0.97;0.70;;;23.20;74.00;;;;;;5074914;28;20433;-61
2021/12/31 05:39:21;;;;;;;0.90;0.60;;;23.30;74.10;;;;;;5074808;28;20444;-61
2021/12/31 05:41:48;;;;;;;1.00;0.80;;;23.30;74.10;;;;;;5074673;28;20487;-61
2021/12/31 05:44:14;;;;;;;0.90;0.60;;;23.30;74.10;;;;;;5074781;28;20465;-61
2021/12/31 05:46:47;;;;;;;1.00;0.80;;;23.20;74.00;;;;;;5074679;28;20443;-61
2021/12/31 05:49:14;;;;;;;0.90;0.60;;;23.20;74.00;;;;;;5074532;28;20433;-61
2021/12/31 05:51:41;;;;;;;1.00;0.60;;;23.20;74.00;;;;;;5074008;28;20842;-61
2021/12/31 05:54:08;;;;;;;0.93;0.73;;;23.30;74.10;;;;;;5074041;28;20448;-61
2021/12/31 05:56:34;;;;;;;0.90;0.70;;;23.20;74.00;;;;;;5074543;28;20440;-61
2021/12/31 05:59:01;;;;;;;0.90;0.70;;;23.20;74.00;;;;;;5074316;28;20465;-61
2021/12/31 06:01:28;;;;;;;0.90;0.77;;;23.20;74.00;;;;;;5074280;28;20487;-61
2021/12/31 06:03:56;;;;;;;1.00;0.80;;;23.20;74.00;;;;;;5074329;28;20441;-61
2021/12/31 06:06:22;;;;;;;0.90;0.70;;;23.20;74.00;;;;;;5074157;28;20441;-61
2021/12/31 06:08:49;;;;;;;1.00;0.70;;;23.20;74.00;;;;;;5074284;28;20470;-61
2021/12/31 06:11:16;;;;;;;1.20;0.83;;;23.20;74.00;;;;;;5074090;28;20499;-61
2021/12/31 06:13:43;;;;;;;1.10;0.73;;;23.20;74.00;;;;;;5073741;28;20801;-61
2021/12/31 06:16:11;;;;;;;0.90;0.70;;;23.20;74.00;;;;;;5074061;28;20464;-61
2021/12/31 06:18:39;;;;;;;1.00;0.70;;;23.20;74.00;;;;;;5074043;28;20438;-61
2021/12/31 06:21:08;;;;;;;0.90;0.70;;;23.30;74.00;;;;;;5073987;28;20478;-61
2021/12/31 06:23:35;;;;;;;1.00;0.80;;;23.20;73.90;;;;;;5073967;28;20447;-61
2021/12/31 06:26:01;;;;;;;0.90;0.63;;;23.20;74.00;;;;;;5073825;28;20823;-61
2021/12/31 06:28:28;;;;;;;1.00;0.70;;;23.20;73.90;;;;;;5073798;28;20445;-61
2021/12/31 06:30:55;;;;;;;0.93;0.70;;;23.20;73.90;;;;;;5074121;28;20445;-61
2021/12/31 06:33:22;;;;;;;0.93;0.70;;;23.20;73.90;;;;;;5073715;28;20448;-61
2021/12/31 06:35:48;;;;;;;1.00;0.60;;;23.20;74.00;;;;;;5073495;28;20436;-61
2021/12/31 06:38:17;;;;;;;1.00;0.80;;;23.20;74.00;;;;;;5073580;28;20468;-61
2021/12/31 06:40:44;;;;;;;0.90;0.70;;;23.20;73.90;;;;;;5073486;28;20499;-61
2021/12/31 06:43:11;;;;;;;1.00;0.70;;;23.20;73.90;;;;;;5073472;28;20437;-61
2021/12/31 06:45:37;;;;;;;1.00;0.67;;;23.20;74.00;;;;;;5073620;28;20441;-61
2021/12/31 06:48:05;;;;;;;0.90;0.60;;;23.20;73.90;;;;;;5073868;28;20432;-61
2021/12/31 06:50:32;;;;;;;1.00;0.80;;;23.20;73.90;;;;;;5073797;28;20505;-61
2021/12/31 06:53:01;;;;;;;1.00;0.80;;;23.20;74.00;;;;;;5073499;28;20511;-61
2021/12/31 06:55:29;;;;;;;1.00;0.70;;;23.20;73.90;;;;;;5073336;28;20501;-61
2021/12/31 06:57:56;;;;;;;0.90;0.60;;;23.20;74.00;;;;;;5073409;28;20879;-61
2021/12/31 07:00:23;;;;;;;0.90;0.70;;;23.20;74.00;;;;;;5073488;28;20437;-61
2021/12/31 07:02:50;;;;;;;0.90;0.60;;;23.20;74.00;;;;;;5073635;28;20480;-61
2021/12/31 07:05:17;;;;;;;1.00;0.70;;;23.20;74.00;;;;;;5073157;28;20444;-61
2021/12/31 07:07:44;;;;;;;0.90;0.70;;;23.20;74.00;;;;;;5073340;28;20465;-61
2021/12/31 07:10:10;;;;;;;1.00;0.60;;;23.20;74.00;;;;;;5073205;28;20788;-61
2021/12/31 07:12:38;;;;;;;0.97;0.70;;;23.20;74.00;;;;;;5073256;28;20456;-61
2021/12/31 07:15:05;;;;;;;1.10;0.90;;;23.20;74.00;;;;;;5073130;28;20436;-61
2021/12/31 07:17:32;;;;;;;1.10;0.70;;;23.20;74.00;;;;;;5072930;28;20523;-61
2021/12/31 07:19:59;;;;;;;0.93;0.77;;;23.20;74.00;;;;;;5073218;28;20446;-61
2021/12/31 07:22:25;;;;;;;0.90;0.60;;;23.20;74.00;;;;;;5072974;28;20492;-61
2021/12/31 07:24:52;;;;;;;1.00;0.70;;;23.20;74.00;;;;;;5073185;28;20769;-61
2021/12/31 07:27:19;;;;;;;1.00;0.80;;;23.20;74.00;;;;;;5073179;28;20444;-61
2021/12/31 07:29:47;;;;;;;0.90;0.70;;;23.20;73.90;;;;;;5073169;28;20837;-61
2021/12/31 07:32:14;;;;;;;0.90;0.60;;;23.20;73.90;;;;;;5073230;28;20438;-61
2021/12/31 07:34:40;;;;;;;0.90;0.70;;;23.20;74.00;;;;;;5072870;28;20444;-61
2021/12/31 07:37:07;;;;;;;1.00;0.90;;;23.20;74.00;;;;;;5073068;28;20785;-61
2021/12/31 07:39:35;;;;;;;1.10;0.80;;;23.20;74.00;;;;;;5073059;28;20453;-61
2021/12/31 07:42:02;;;;;;;1.20;0.70;;;23.20;74.00;;;;;;5072970;28;20496;-61
2021/12/31 07:44:28;;;;;;;0.90;0.70;;;23.20;74.00;;;;;;5073010;28;20745;-61
2021/12/31 07:46:57;;;;;;;0.90;0.67;;;23.20;74.00;;;;;;5072910;28;20433;-61
2021/12/31 07:49:23;;;;;;;1.00;0.80;;;23.20;74.00;;;;;;5072913;28;20494;-61
2021/12/31 07:51:50;;;;;;;0.90;0.60;;;23.20;74.00;;;;;;5072739;28;20954;-61
2021/12/31 07:54:17;;;;;;;1.00;0.70;;;23.20;74.00;;;;;;5072870;28;20835;-61
2021/12/31 07:56:43;;;;;;;1.00;0.70;;;23.20;74.00;;;;;;5072899;28;20445;-61
2021/12/31 07:59:10;;;;;;;0.90;0.73;;;23.20;74.00;;;;;;5072841;28;20445;-61
2021/12/31 08:01:37;;;;;;;1.07;0.70;;;23.20;74.00;;;;;;5067546;28;20476;-61
2021/12/31 08:04:05;;;;;;;1.13;0.70;;;23.20;74.00;;;;;;5072686;28;20444;-61
2021/12/31 08:06:32;;;;;;;0.93;0.70;;;23.20;74.00;;;;;;5072685;28;20773;-61
2021/12/31 08:08:59;;;;;;;0.97;0.73;;;23.20;73.90;;;;;;5072785;28;20432;-62
2021/12/31 08:11:25;;;;;;;0.90;0.70;;;23.20;74.00;;;;;;5072667;28;20838;-62
2021/12/31 08:13:52;;;;;;;1.10;0.80;;;23.20;73.90;;;;;;5072813;28;21285;-61
2021/12/31 08:16:19;;;;;;;0.93;0.70;;;23.20;74.00;;;;;;5074501;28;20448;-61
2021/12/31 08:18:45;;;;;;;0.93;0.70;;;23.20;73.90;;;;;;5076418;28;20448;-61
2021/12/31 08:21:13;;;;;;;0.90;0.70;;;23.20;73.90;;;;;;5076323;28;20928;-61
2021/12/31 08:23:40;;;;;;;1.20;0.80;;;23.20;74.00;;;;;;5076234;28;20434;-62
2021/12/31 08:26:07;;;;;;;1.50;0.83;;;23.20;74.00;;;;;;5076135;28;20796;-61
2021/12/31 08:28:33;;;;;;;1.00;0.70;;;23.20;74.00;;;;;;5076062;28;20440;-61
2021/12/31 08:31:00;;;;;;;0.90;0.60;;;23.20;74.00;;;;;;5076132;28;20850;-61
2021/12/31 08:33:28;;;;;;;0.90;0.70;;;23.20;74.00;;;;;;5076302;28;20445;-61
2021/12/31 08:35:55;;;;;;;1.00;0.80;;;23.20;74.00;;;;;;5076022;28;20436;-61
2021/12/31 08:38:23;;;;;;;0.97;0.70;;;23.10;73.80;;;;;;5075928;28;20489;-61
2021/12/31 08:40:50;;;;;;;1.00;0.80;;;23.20;74.20;;;;;;5075872;28;20446;-61
2021/12/31 08:43:17;;;;;;;1.10;0.80;;;23.10;73.90;;;;;;5075529;28;20492;-61
2021/12/31 08:45:44;;;;;;;1.00;0.73;;;23.10;73.90;;;;;;5076063;28;20438;-61
2021/12/31 08:48:11;;;;;;;1.00;0.70;;;23.20;74.00;;;;;;5075865;28;20918;-61
2021/12/31 08:50:38;;;;;;;1.00;0.70;;;23.10;73.80;;;;;;5075855;28;20442;-61
2021/12/31 08:53:04;;;;;;;0.90;0.70;;;23.10;73.80;;;;;;5075841;28;20947;-62
2021/12/31 08:55:33;;;;;;;1.00;0.70;;;23.10;73.80;;;;;;5075593;28;20449;-61
2021/12/31 08:58:00;;;;;;;0.90;0.70;;;23.20;73.90;;;;;;5075607;28;20488;-61
2021/12/31 09:00:26;;;;;;;1.00;0.70;;;23.20;73.90;;;;;;5075655;28;20440;-63
2021/12/31 09:02:53;;;;;;;1.00;0.70;;;23.20;73.90;;;;;;5075361;28;20489;-61
2021/12/31 09:05:22;;;;;;;1.10;0.90;;;23.20;73.90;;;;;;5075370;28;20777;-62
2021/12/31 09:07:49;;;;;;;0.90;0.60;;;23.10;73.80;;;;;;5075427;28;20467;-63
2021/12/31 09:10:16;;;;;;;1.00;0.70;;;23.20;73.90;;;;;;5075308;28;20432;-64
2021/12/31 09:12:46;;;;;;;1.53;0.70;;;23.20;73.90;;;;;;5075526;28;20437;-62
2021/12/31 09:15:13;;;;;;;1.63;0.90;;;23.10;73.80;;;;;;5075043;28;20519;-61
2021/12/31 09:17:41;;;;;;;6.83;2.30;;;23.20;74.50;;;;;;5075133;28;20818;-61
2021/12/31 09:20:08;;;;;;;3.53;1.80;;;23.10;76.50;;;;;;5075127;28;20441;-61
2021/12/31 09:22:35;;;;;;;8.03;2.40;;;23.00;77.00;;;;;;5075006;28;21003;-61
2021/12/31 09:25:03;;;;;;;3.00;1.40;;;22.90;77.10;;;;;;5074928;28;20437;-62
2021/12/31 09:27:30;;;;;;;4.90;1.73;;;22.90;77.30;;;;;;5074959;28;20437;-62
2021/12/31 09:29:58;;;;;;;4.70;2.17;;;22.70;77.60;;;;;;5075001;28;20441;-66
2021/12/31 09:32:25;;;;;;;3.47;2.20;;;22.70;77.80;;;;;;5074841;28;20452;-62
2021/12/31 09:34:51;;;;;;;3.33;2.07;;;22.60;77.80;;;;;;5074743;28;20437;-62
2021/12/31 09:37:19;;;;;;;2.10;1.40;;;22.40;78.30;;;;;;5074595;28;20510;-64
2021/12/31 09:39:46;;;;;;;3.00;1.80;;;22.20;78.50;;;;;;5074693;28;20839;-63
2021/12/31 09:42:14;;;;;;;12.63;2.80;;;22.00;78.80;;;;;;5074280;28;20491;-66
2021/12/31 09:44:41;;;;;;;10.83;2.37;;;21.90;80.20;;;;;;5074252;28;20476;-66
2021/12/31 09:47:13;;;;;;;3.57;1.60;;;21.70;79.80;;;;;;5074644;28;20451;-69
2021/12/31 09:49:40;;;;;;;6.30;1.83;;;21.80;79.50;;;;;;5072662;28;20501;-66
2021/12/31 09:52:09;;;;;;;2.10;1.57;;;21.90;79.00;;;;;;5074187;28;20441;-65
2021/12/31 09:54:35;;;;;;;2.37;1.80;;;22.00;78.50;;;;;;5072119;28;20479;-66
2021/12/31 09:57:04;;;;;;;5.83;1.90;;;22.10;78.00;;;;;;5071327;28;20444;-65
2021/12/31 09:59:31;;;;;;;7.13;1.93;;;22.20;77.60;;;;;;5072139;28;20505;-65
2021/12/31 10:01:58;;;;;;;2.80;1.47;;;22.30;77.20;;;;;;5072473;28;20989;-65
2021/12/31 10:04:52;;;;;;;2.70;1.67;;;22.40;77.00;;;;;;5073073;28;20836;-66
2021/12/31 10:07:21;;;;;;;2.50;1.60;;;22.50;76.60;;;;;;5071571;28;20475;-65
2021/12/31 10:10:07;;;;;;;4.13;1.40;;;22.50;76.40;;;;;;5071984;28;20518;-65
2021/12/31 10:12:48;;;;;;;2.87;1.53;;;22.60;76.10;;;;;;5072091;28;20451;-66
2021/12/31 10:15:17;;;;;;;3.20;1.30;;;22.70;76.00;;;;;;5071770;28;20448;-65
2021/12/31 10:17:43;;;;;;;1.70;1.20;;;22.70;75.90;;;;;;5071814;28;20561;-65
2021/12/31 10:20:12;;;;;;;2.10;1.20;;;22.70;75.70;;;;;;5071954;28;20958;-68
2021/12/31 10:22:39;;;;;;;3.13;1.80;;;22.70;75.50;;;;;;5073080;28;20476;-65
2021/12/31 10:25:17;;;;;;;2.17;1.10;;;22.80;75.50;;;;;;5073859;28;20771;-66
2021/12/31 10:27:45;;;;;;;2.23;1.60;;;22.80;75.30;;;;;;5073903;28;20516;-67
2021/12/31 10:30:12;;;;;;;2.17;1.00;;;22.80;75.20;;;;;;5073762;28;20437;-63
2021/12/31 10:32:41;;;;;;;1.20;1.10;;;22.80;75.20;;;;;;5073931;28;20483;-65
2021/12/31 10:35:10;;;;;;;1.30;1.10;;;22.90;75.20;;;;;;5073650;28;20850;-64
2021/12/31 10:37:44;;;;;;;1.30;1.20;;;22.90;75.10;;;;;;5073398;28;20458;-64
2021/12/31 10:40:11;;;;;;;3.77;1.13;;;22.90;75.00;;;;;;5073446;28;20570;-64
2021/12/31 10:42:40;;;;;;;2.90;1.33;;;22.90;75.00;;;;;;5072782;28;20484;-66
2021/12/31 10:45:09;;;;;;;1.70;1.20;;;22.90;75.10;;;;;;5073347;28;20448;-63
2021/12/31 10:47:38;;;;;;;3.90;1.10;;;22.90;75.00;;;;;;5071724;28;20799;-63
2021/12/31 10:50:16;;;;;;;1.37;1.20;;;22.90;74.80;;;;;;5072604;28;20508;-63
2021/12/31 10:52:57;;;;;;;1.90;0.97;;;22.90;74.80;;;;;;5073147;28;20448;-63
2021/12/31 10:55:27;;;;;;;1.53;1.10;;;22.90;74.70;;;;;;5073376;28;20441;-66
2021/12/31 10:57:57;;;;;;;1.40;1.13;;;22.90;74.70;;;;;;5072938;28;21568;-64
2021/12/31 11:00:26;;;;;;;1.37;1.27;;;22.90;74.70;;;;;;5071111;28;20436;-65
2021/12/31 11:02:53;;;;;;;1.90;1.27;;;23.00;74.80;;;;;;5071862;28;20498;-65
2021/12/31 11:05:21;;;;;;;1.60;1.23;;;23.00;74.70;;;;;;5072576;28;20449;-65
2021/12/31 11:07:50;;;;;;;1.10;0.80;;;23.00;74.60;;;;;;5072417;28;20472;-66
2021/12/31 11:10:17;;;;;;;2.50;1.10;;;23.00;74.60;;;;;;5072374;28;20790;-65
2021/12/31 11:12:47;;;;;;;1.70;1.13;;;23.00;74.60;;;;;;5072292;28;20808;-65
2021/12/31 11:15:15;;;;;;;1.30;1.10;;;23.00;74.60;;;;;;5073036;28;20804;-65
2021/12/31 11:17:42;;;;;;;1.93;0.97;;;23.00;74.50;;;;;;5073210;28;20477;-65
2021/12/31 11:20:10;;;;;;;1.60;1.10;;;23.00;74.40;;;;;;5073206;28;20441;-65
2021/12/31 11:22:38;;;;;;;1.90;0.97;;;23.00;74.40;;;;;;5073027;28;20480;-67
2021/12/31 11:25:24;;;;;;;2.37;1.03;;;23.00;74.40;;;;;;5073156;28;20441;-68
2021/12/31 11:27:52;;;;;;;1.37;1.00;;;23.00;75.20;;;;;;5073182;28;20494;-65
2021/12/31 11:30:28;;;;;;;1.30;0.90;;;23.00;74.40;;;;;;5073100;28;20444;-65
2021/12/31 11:33:00;;;;;;;1.50;1.30;;;23.00;74.40;;;;;;5073035;28;20463;-65
2021/12/31 11:35:36;;;;;;;2.47;1.13;;;23.00;74.30;;;;;;5073137;28;20441;-65
2021/12/31 11:38:04;;;;;;;2.27;1.00;;;23.00;74.30;;;;;;5073023;28;20454;-68
2021/12/31 11:40:34;;;;;;;1.10;0.90;;;23.00;74.30;;;;;;5072999;28;20495;-65
2021/12/31 11:43:14;;;;;;;2.40;1.00;;;23.00;74.30;;;;;;5072842;28;20485;-65
2021/12/31 11:45:42;;;;;;;1.07;0.90;;;23.00;74.20;;;;;;5072605;28;20441;-67
2021/12/31 11:48:42;;;;;;;1.57;0.97;;;23.00;74.30;;;;;;5073191;28;20944;-66
2021/12/31 11:51:10;;;;;;;2.03;0.90;;;23.00;74.20;;;;;;5074665;28;20440;-65
2021/12/31 11:54:21;;;;;;;1.00;0.70;;;23.00;74.30;;;;;;5076669;28;20437;-67
2021/12/31 11:57:18;;;;;;;2.40;0.90;;;23.00;74.20;;;;;;5076849;28;20772;-65
2021/12/31 11:59:46;;;;;;;1.10;0.90;;;23.00;74.20;;;;;;5076784;28;20463;-65
2021/12/31 12:02:17;;;;;;;1.10;0.90;;;23.00;74.20;;;;;;5076605;28;20498;-65
2021/12/31 12:05:08;;;;;;;1.10;0.90;;;23.00;74.20;;;;;;5076520;28;20440;-68
2021/12/31 12:07:37;;;;;;;1.37;1.00;;;23.00;74.20;;;;;;5076492;28;20963;-65
2021/12/31 12:10:15;;;;;;;1.30;1.00;;;23.00;74.20;;;;;;5076495;28;20451;-68
2021/12/31 12:12:49;;;;;;;2.43;1.00;;;23.00;74.10;;;;;;5076354;28;20463;-65
2021/12/31 12:15:31;;;;;;;1.60;0.90;;;23.00;74.10;;;;;;5076248;28;20437;-65
2021/12/31 12:17:59;;;;;;;1.57;1.13;;;23.00;74.10;;;;;;5076144;28;20472;-65
2021/12/31 12:20:41;;;;;;;1.30;0.90;;;23.00;74.20;;;;;;5076228;28;20816;-65
2021/12/31 12:23:20;;;;;;;1.20;0.80;;;23.00;74.10;;;;;;5076121;28;20476;-66
2021/12/31 12:25:47;;;;;;;1.27;0.90;;;23.00;74.00;;;;;;5076171;28;20433;-65
2021/12/31 12:28:16;;;;;;;1.20;1.10;;;23.00;74.10;;;;;;5076417;28;20441;-65
2021/12/31 12:30:47;;;;;;;1.47;1.00;;;23.00;74.00;;;;;;5076000;28;20539;-65
2021/12/31 12:33:19;;;;;;;1.93;0.97;;;23.00;74.00;;;;;;5076093;28;20438;-65
2021/12/31 12:35:48;;;;;;;1.10;0.73;;;23.00;74.00;;;;;;5075877;28;20429;-65
2021/12/31 12:38:19;;;;;;;1.10;0.80;;;23.00;74.00;;;;;;5075824;28;20461;-69
2021/12/31 12:40:50;;;;;;;1.40;0.90;;;23.00;74.00;;;;;;5075999;28;20438;-68
2021/12/31 12:43:21;;;;;;;1.20;0.90;;;23.00;74.00;;;;;;5075479;28;20481;-68
2021/12/31 12:45:49;;;;;;;1.10;0.80;;;23.00;73.90;;;;;;5075826;28;20441;-65
2021/12/31 12:48:17;;;;;;;1.30;1.10;;;23.00;73.90;;;;;;5075796;28;20920;-68
2021/12/31 12:50:49;;;;;;;1.00;0.73;;;23.00;74.00;;;;;;5075722;28;20456;-65
2021/12/31 12:53:23;;;;;;;1.20;0.90;;;23.10;74.00;;;;;;5075653;28;20527;-65
2021/12/31 12:55:50;;;;;;;1.00;0.87;;;23.10;74.00;;;;;;5075505;28;20437;-68
2021/12/31 12:58:25;;;;;;;1.37;1.00;;;23.00;73.90;;;;;;5075646;28;20445;-66